This is the latest recevied weather packets stored in our database for station/object JA3QOS-13. If no packets are shown the sender has not sent any weather packets the latest 10 day(s).
| Time | Temp. | Humidity | Pressure | Rain* | Wind** | Luminosity | Snow |
|---|---|---|---|---|---|---|---|
| 1787396404 | 25.56° C | 94% | 1015.8 hPa | 0 mm | - | - | - |
| 1787394604 | 26.11° C | 92% | 1015.6 hPa | 0 mm | - | - | - |
| 1787392804 | 27.22° C | 87% | 1015.2 hPa | 0 mm | - | - | - |
| 1787391003 | 27.78° C | 82% | 1014.7 hPa | 0 mm | - | - | - |
| 1787389204 | 28.33° C | 80% | 1014.4 hPa | 0 mm | - | - | - |
| 1787387403 | 29.44° C | 76% | 1014.3 hPa | 0 mm | - | - | - |
| 1787385603 | 29.44° C | 76% | 1014.3 hPa | 0 mm | - | - | - |
| 1787383804 | 30.56° C | 73% | 1014.4 hPa | 0 mm | - | - | - |
| 1787382004 | 31.67° C | 67% | 1014.3 hPa | 0 mm | - | - | - |
| 1787380204 | 31.67° C | 67% | 1014.1 hPa | 0 mm | - | - | - |
| 1787378403 | 32.22° C | 69% | 1014.4 hPa | 0 mm | - | - | - |
| 1787376603 | 30.56° C | 71% | 1014.4 hPa | 0 mm | - | - | - |
| 1787374804 | 30° C | 76% | 1014.6 hPa | 0 mm | - | - | - |
| 1787373004 | 29.44° C | 78% | 1014.7 hPa | 0 mm | - | - | - |
| 1787371203 | 29.44° C | 76% | 1014.5 hPa | 0 mm | - | - | - |
| 1787369403 | 31.11° C | 74% | 1014.7 hPa | 0 mm | - | - | - |
| 1787367604 | 30° C | 76% | 1015 hPa | 0 mm | - | - | - |
| 1787365804 | 27.78° C | 84% | 1015.3 hPa | 0 mm | - | - | - |
| 1787364004 | 30° C | 78% | 1015.5 hPa | 0 mm | - | - | - |
| 1787362204 | 28.33° C | 84% | 1015.6 hPa | 0 mm | - | - | - |
| 1787360404 | 27.22° C | 89% | 1015.8 hPa | 0 mm | - | - | - |
| 1787358603 | 26.11° C | 90% | 1015.8 hPa | 0 mm | - | - | - |
| 1787356807 | 25.56° C | 94% | 1015.6 hPa | 0 mm | - | - | - |
* Rain latest hour (hover to see other rain measurements)
** Current wind speed in m/s (hover to see current wind gust speed)